sensor_id;sensor_type;location;lat;lon;timestamp;P1;durP1;ratioP1;P2;durP2;ratioP2
11616;SDS011;5864;52.998;9.068;2022-09-14T00:00:05;3.37;;;1.53;;
11616;SDS011;5864;52.998;9.068;2022-09-14T00:02:33;4.07;;;1.40;;
11616;SDS011;5864;52.998;9.068;2022-09-14T00:05:03;4.10;;;1.67;;
11616;SDS011;5864;52.998;9.068;2022-09-14T00:07:30;3.27;;;1.60;;
11616;SDS011;5864;52.998;9.068;2022-09-14T00:09:58;7.03;;;1.87;;
11616;SDS011;5864;52.998;9.068;2022-09-14T00:12:25;3.90;;;1.50;;
11616;SDS011;5864;52.998;9.068;2022-09-14T00:14:53;2.57;;;1.40;;
11616;SDS011;5864;52.998;9.068;2022-09-14T00:17:21;3.37;;;1.40;;
11616;SDS011;5864;52.998;9.068;2022-09-14T00:19:48;3.53;;;1.70;;
11616;SDS011;5864;52.998;9.068;2022-09-14T00:22:19;2.57;;;1.87;;
11616;SDS011;5864;52.998;9.068;2022-09-14T00:24:46;4.00;;;1.50;;
11616;SDS011;5864;52.998;9.068;2022-09-14T00:27:14;4.73;;;1.67;;
11616;SDS011;5864;52.998;9.068;2022-09-14T00:29:41;4.30;;;1.67;;
11616;SDS011;5864;52.998;9.068;2022-09-14T00:32:09;5.10;;;1.60;;
11616;SDS011;5864;52.998;9.068;2022-09-14T00:34:36;2.43;;;1.20;;
11616;SDS011;5864;52.998;9.068;2022-09-14T00:37:04;3.27;;;1.63;;
11616;SDS011;5864;52.998;9.068;2022-09-14T00:39:33;3.73;;;1.60;;
11616;SDS011;5864;52.998;9.068;2022-09-14T00:42:00;2.93;;;1.57;;
11616;SDS011;5864;52.998;9.068;2022-09-14T00:47:27;3.47;;;1.40;;
11616;SDS011;5864;52.998;9.068;2022-09-14T00:49:56;3.67;;;1.50;;
11616;SDS011;5864;52.998;9.068;2022-09-14T00:52:27;4.97;;;1.60;;
11616;SDS011;5864;52.998;9.068;2022-09-14T00:55:00;3.90;;;1.50;;
11616;SDS011;5864;52.998;9.068;2022-09-14T00:57:33;2.70;;;1.50;;
11616;SDS011;5864;52.998;9.068;2022-09-14T01:00:05;3.43;;;1.70;;
11616;SDS011;5864;52.998;9.068;2022-09-14T01:02:36;2.57;;;1.40;;
11616;SDS011;5864;52.998;9.068;2022-09-14T01:05:04;3.70;;;1.60;;
11616;SDS011;5864;52.998;9.068;2022-09-14T01:07:41;3.77;;;1.90;;
11616;SDS011;5864;52.998;9.068;2022-09-14T01:10:35;2.57;;;1.40;;
11616;SDS011;5864;52.998;9.068;2022-09-14T01:13:14;2.70;;;1.50;;
11616;SDS011;5864;52.998;9.068;2022-09-14T01:15:53;5.83;;;1.80;;
11616;SDS011;5864;52.998;9.068;2022-09-14T01:18:26;4.10;;;1.73;;
11616;SDS011;5864;52.998;9.068;2022-09-14T01:20:59;4.43;;;1.53;;
11616;SDS011;5864;52.998;9.068;2022-09-14T01:23:34;4.43;;;1.83;;
11616;SDS011;5864;52.998;9.068;2022-09-14T01:29:16;4.80;;;1.63;;
11616;SDS011;5864;52.998;9.068;2022-09-14T01:31:48;5.60;;;1.83;;
11616;SDS011;5864;52.998;9.068;2022-09-14T01:34:22;3.03;;;1.40;;
11616;SDS011;5864;52.998;9.068;2022-09-14T01:36:55;4.33;;;1.87;;
11616;SDS011;5864;52.998;9.068;2022-09-14T01:39:25;6.10;;;2.00;;
11616;SDS011;5864;52.998;9.068;2022-09-14T01:41:55;3.70;;;1.50;;
11616;SDS011;5864;52.998;9.068;2022-09-14T01:44:26;2.67;;;1.63;;
11616;SDS011;5864;52.998;9.068;2022-09-14T01:46:59;3.73;;;1.63;;
11616;SDS011;5864;52.998;9.068;2022-09-14T01:49:33;2.77;;;1.50;;
11616;SDS011;5864;52.998;9.068;2022-09-14T01:52:08;5.37;;;2.00;;
11616;SDS011;5864;52.998;9.068;2022-09-14T01:54:40;3.60;;;1.80;;
11616;SDS011;5864;52.998;9.068;2022-09-14T01:57:12;3.00;;;1.80;;
11616;SDS011;5864;52.998;9.068;2022-09-14T01:59:47;3.80;;;1.77;;
11616;SDS011;5864;52.998;9.068;2022-09-14T02:02:19;5.47;;;1.70;;
11616;SDS011;5864;52.998;9.068;2022-09-14T02:04:53;2.17;;;1.40;;
11616;SDS011;5864;52.998;9.068;2022-09-14T02:07:25;5.93;;;1.97;;
11616;SDS011;5864;52.998;9.068;2022-09-14T02:09:52;4.50;;;1.80;;
11616;SDS011;5864;52.998;9.068;2022-09-14T02:12:21;4.50;;;1.77;;
11616;SDS011;5864;52.998;9.068;2022-09-14T02:14:51;3.60;;;1.80;;
11616;SDS011;5864;52.998;9.068;2022-09-14T02:17:20;4.57;;;2.07;;
11616;SDS011;5864;52.998;9.068;2022-09-14T02:19:54;3.33;;;1.70;;
11616;SDS011;5864;52.998;9.068;2022-09-14T02:22:24;3.87;;;1.83;;
11616;SDS011;5864;52.998;9.068;2022-09-14T02:24:53;3.23;;;1.97;;
11616;SDS011;5864;52.998;9.068;2022-09-14T02:27:21;4.87;;;2.20;;
11616;SDS011;5864;52.998;9.068;2022-09-14T02:29:51;2.80;;;1.90;;
11616;SDS011;5864;52.998;9.068;2022-09-14T02:32:20;4.57;;;1.90;;
11616;SDS011;5864;52.998;9.068;2022-09-14T02:34:56;4.00;;;1.80;;
11616;SDS011;5864;52.998;9.068;2022-09-14T02:37:34;3.90;;;2.00;;
11616;SDS011;5864;52.998;9.068;2022-09-14T02:40:10;4.07;;;2.00;;
11616;SDS011;5864;52.998;9.068;2022-09-14T02:42:46;6.00;;;1.43;;
11616;SDS011;5864;52.998;9.068;2022-09-14T02:45:23;4.30;;;1.80;;
11616;SDS011;5864;52.998;9.068;2022-09-14T02:47:56;4.90;;;1.90;;
11616;SDS011;5864;52.998;9.068;2022-09-14T02:50:32;6.33;;;2.63;;
11616;SDS011;5864;52.998;9.068;2022-09-14T02:53:06;4.50;;;1.90;;
11616;SDS011;5864;52.998;9.068;2022-09-14T02:55:39;5.00;;;1.93;;
11616;SDS011;5864;52.998;9.068;2022-09-14T02:58:11;4.50;;;2.20;;
11616;SDS011;5864;52.998;9.068;2022-09-14T03:00:42;4.67;;;2.13;;
11616;SDS011;5864;52.998;9.068;2022-09-14T03:03:12;4.47;;;2.23;;
11616;SDS011;5864;52.998;9.068;2022-09-14T03:05:40;5.37;;;1.97;;
11616;SDS011;5864;52.998;9.068;2022-09-14T03:08:08;3.93;;;2.20;;
11616;SDS011;5864;52.998;9.068;2022-09-14T03:10:36;3.07;;;2.13;;
11616;SDS011;5864;52.998;9.068;2022-09-14T03:13:07;5.10;;;2.17;;
11616;SDS011;5864;52.998;9.068;2022-09-14T03:15:34;3.27;;;2.33;;
11616;SDS011;5864;52.998;9.068;2022-09-14T03:18:04;4.13;;;2.30;;
11616;SDS011;5864;52.998;9.068;2022-09-14T03:20:31;4.43;;;2.43;;
11616;SDS011;5864;52.998;9.068;2022-09-14T03:23:00;4.40;;;2.30;;
11616;SDS011;5864;52.998;9.068;2022-09-14T03:25:28;4.30;;;2.10;;
11616;SDS011;5864;52.998;9.068;2022-09-14T03:27:56;4.77;;;2.47;;
11616;SDS011;5864;52.998;9.068;2022-09-14T03:30:25;5.13;;;2.57;;
11616;SDS011;5864;52.998;9.068;2022-09-14T03:32:53;6.70;;;2.40;;
11616;SDS011;5864;52.998;9.068;2022-09-14T03:35:22;5.00;;;2.80;;
11616;SDS011;5864;52.998;9.068;2022-09-14T03:37:50;6.07;;;2.70;;
11616;SDS011;5864;52.998;9.068;2022-09-14T03:40:17;3.63;;;2.23;;
11616;SDS011;5864;52.998;9.068;2022-09-14T03:42:46;3.50;;;2.50;;
11616;SDS011;5864;52.998;9.068;2022-09-14T03:45:15;3.70;;;2.10;;
11616;SDS011;5864;52.998;9.068;2022-09-14T03:47:44;3.47;;;2.40;;
11616;SDS011;5864;52.998;9.068;2022-09-14T03:50:11;6.60;;;2.80;;
11616;SDS011;5864;52.998;9.068;2022-09-14T03:52:41;5.90;;;2.87;;
11616;SDS011;5864;52.998;9.068;2022-09-14T03:55:09;5.60;;;2.50;;
11616;SDS011;5864;52.998;9.068;2022-09-14T03:57:37;3.27;;;2.30;;
11616;SDS011;5864;52.998;9.068;2022-09-14T04:00:05;5.00;;;2.50;;
11616;SDS011;5864;52.998;9.068;2022-09-14T04:02:34;4.73;;;2.30;;
11616;SDS011;5864;52.998;9.068;2022-09-14T04:05:01;2.97;;;2.20;;
11616;SDS011;5864;52.998;9.068;2022-09-14T04:07:29;3.60;;;2.50;;
11616;SDS011;5864;52.998;9.068;2022-09-14T04:09:58;5.27;;;2.50;;
11616;SDS011;5864;52.998;9.068;2022-09-14T04:12:25;4.87;;;2.87;;
11616;SDS011;5864;52.998;9.068;2022-09-14T04:14:53;5.63;;;2.67;;
11616;SDS011;5864;52.998;9.068;2022-09-14T04:17:20;4.67;;;2.60;;
11616;SDS011;5864;52.998;9.068;2022-09-14T04:19:49;5.83;;;2.60;;
11616;SDS011;5864;52.998;9.068;2022-09-14T04:22:17;5.80;;;2.60;;
11616;SDS011;5864;52.998;9.068;2022-09-14T04:24:44;9.03;;;3.07;;
11616;SDS011;5864;52.998;9.068;2022-09-14T04:27:13;4.83;;;2.47;;
11616;SDS011;5864;52.998;9.068;2022-09-14T04:29:41;6.37;;;2.77;;
11616;SDS011;5864;52.998;9.068;2022-09-14T04:32:08;3.73;;;2.40;;
11616;SDS011;5864;52.998;9.068;2022-09-14T04:34:36;4.50;;;3.00;;
11616;SDS011;5864;52.998;9.068;2022-09-14T04:37:03;4.53;;;2.63;;
11616;SDS011;5864;52.998;9.068;2022-09-14T04:39:31;6.77;;;3.10;;
11616;SDS011;5864;52.998;9.068;2022-09-14T04:41:58;3.30;;;2.80;;
11616;SDS011;5864;52.998;9.068;2022-09-14T04:44:27;4.57;;;2.77;;
11616;SDS011;5864;52.998;9.068;2022-09-14T04:46:54;6.30;;;2.90;;
11616;SDS011;5864;52.998;9.068;2022-09-14T04:49:22;5.07;;;3.30;;
11616;SDS011;5864;52.998;9.068;2022-09-14T04:51:49;3.87;;;2.60;;
11616;SDS011;5864;52.998;9.068;2022-09-14T04:54:17;5.63;;;3.07;;
11616;SDS011;5864;52.998;9.068;2022-09-14T04:56:46;4.70;;;3.00;;
11616;SDS011;5864;52.998;9.068;2022-09-14T04:59:14;4.23;;;2.77;;
11616;SDS011;5864;52.998;9.068;2022-09-14T05:01:43;6.60;;;2.83;;
11616;SDS011;5864;52.998;9.068;2022-09-14T05:04:12;3.57;;;2.53;;
11616;SDS011;5864;52.998;9.068;2022-09-14T05:06:40;4.50;;;3.00;;
11616;SDS011;5864;52.998;9.068;2022-09-14T05:09:12;6.10;;;3.30;;
11616;SDS011;5864;52.998;9.068;2022-09-14T05:11:40;4.17;;;2.93;;
11616;SDS011;5864;52.998;9.068;2022-09-14T05:14:08;6.13;;;3.23;;
11616;SDS011;5864;52.998;9.068;2022-09-14T05:16:38;4.53;;;2.90;;
11616;SDS011;5864;52.998;9.068;2022-09-14T05:19:11;7.00;;;3.50;;
11616;SDS011;5864;52.998;9.068;2022-09-14T05:21:39;5.07;;;3.30;;
11616;SDS011;5864;52.998;9.068;2022-09-14T05:24:09;3.83;;;2.80;;
11616;SDS011;5864;52.998;9.068;2022-09-14T05:26:39;5.00;;;3.00;;
11616;SDS011;5864;52.998;9.068;2022-09-14T05:29:10;3.10;;;2.67;;
11616;SDS011;5864;52.998;9.068;2022-09-14T05:31:38;5.57;;;2.70;;
11616;SDS011;5864;52.998;9.068;2022-09-14T05:34:05;6.03;;;2.77;;
11616;SDS011;5864;52.998;9.068;2022-09-14T05:36:36;6.33;;;2.80;;
11616;SDS011;5864;52.998;9.068;2022-09-14T05:39:05;4.37;;;3.43;;
11616;SDS011;5864;52.998;9.068;2022-09-14T05:41:33;6.30;;;3.77;;
11616;SDS011;5864;52.998;9.068;2022-09-14T05:44:02;7.27;;;3.33;;
11616;SDS011;5864;52.998;9.068;2022-09-14T05:46:30;8.17;;;3.53;;
11616;SDS011;5864;52.998;9.068;2022-09-14T05:48:57;3.40;;;2.83;;
11616;SDS011;5864;52.998;9.068;2022-09-14T05:51:26;5.77;;;3.63;;
11616;SDS011;5864;52.998;9.068;2022-09-14T05:53:54;7.10;;;3.30;;
11616;SDS011;5864;52.998;9.068;2022-09-14T05:56:23;5.80;;;3.73;;
11616;SDS011;5864;52.998;9.068;2022-09-14T05:58:52;5.17;;;2.93;;
11616;SDS011;5864;52.998;9.068;2022-09-14T06:01:20;6.77;;;3.30;;
11616;SDS011;5864;52.998;9.068;2022-09-14T06:03:51;6.20;;;3.60;;
11616;SDS011;5864;52.998;9.068;2022-09-14T06:06:20;7.30;;;3.77;;
11616;SDS011;5864;52.998;9.068;2022-09-14T06:08:49;5.33;;;3.80;;
11616;SDS011;5864;52.998;9.068;2022-09-14T06:11:19;5.97;;;3.60;;
11616;SDS011;5864;52.998;9.068;2022-09-14T06:13:48;6.23;;;3.70;;
11616;SDS011;5864;52.998;9.068;2022-09-14T06:16:16;7.33;;;3.33;;
11616;SDS011;5864;52.998;9.068;2022-09-14T06:18:45;8.17;;;3.83;;
11616;SDS011;5864;52.998;9.068;2022-09-14T06:21:14;5.70;;;4.43;;
11616;SDS011;5864;52.998;9.068;2022-09-14T06:23:44;6.67;;;4.23;;
11616;SDS011;5864;52.998;9.068;2022-09-14T06:26:13;4.53;;;3.30;;
11616;SDS011;5864;52.998;9.068;2022-09-14T06:28:41;6.13;;;3.93;;
11616;SDS011;5864;52.998;9.068;2022-09-14T06:31:10;8.70;;;4.63;;
11616;SDS011;5864;52.998;9.068;2022-09-14T06:33:41;7.43;;;4.50;;
11616;SDS011;5864;52.998;9.068;2022-09-14T06:36:10;5.17;;;4.13;;
11616;SDS011;5864;52.998;9.068;2022-09-14T06:38:39;6.47;;;4.17;;
11616;SDS011;5864;52.998;9.068;2022-09-14T06:41:07;5.33;;;3.27;;
11616;SDS011;5864;52.998;9.068;2022-09-14T06:43:39;5.50;;;3.77;;
11616;SDS011;5864;52.998;9.068;2022-09-14T06:46:09;5.73;;;4.23;;
11616;SDS011;5864;52.998;9.068;2022-09-14T06:48:38;6.57;;;3.93;;
11616;SDS011;5864;52.998;9.068;2022-09-14T06:51:11;5.37;;;3.63;;
11616;SDS011;5864;52.998;9.068;2022-09-14T06:53:40;7.07;;;3.70;;
11616;SDS011;5864;52.998;9.068;2022-09-14T06:56:08;6.10;;;3.80;;
11616;SDS011;5864;52.998;9.068;2022-09-14T06:58:37;4.63;;;3.80;;
11616;SDS011;5864;52.998;9.068;2022-09-14T07:01:06;7.13;;;3.77;;
11616;SDS011;5864;52.998;9.068;2022-09-14T07:03:37;7.10;;;3.30;;
11616;SDS011;5864;52.998;9.068;2022-09-14T07:06:06;6.63;;;4.30;;
11616;SDS011;5864;52.998;9.068;2022-09-14T07:08:35;8.63;;;4.40;;
11616;SDS011;5864;52.998;9.068;2022-09-14T07:11:04;8.73;;;4.77;;
11616;SDS011;5864;52.998;9.068;2022-09-14T07:13:33;6.90;;;3.57;;
11616;SDS011;5864;52.998;9.068;2022-09-14T07:16:02;9.03;;;4.17;;
11616;SDS011;5864;52.998;9.068;2022-09-14T07:18:31;7.50;;;4.37;;
11616;SDS011;5864;52.998;9.068;2022-09-14T07:21:02;5.87;;;3.77;;
11616;SDS011;5864;52.998;9.068;2022-09-14T07:23:30;8.63;;;4.23;;
11616;SDS011;5864;52.998;9.068;2022-09-14T07:25:58;9.33;;;4.63;;
11616;SDS011;5864;52.998;9.068;2022-09-14T07:28:27;5.97;;;4.33;;
11616;SDS011;5864;52.998;9.068;2022-09-14T07:30:55;7.53;;;4.57;;
11616;SDS011;5864;52.998;9.068;2022-09-14T07:33:24;6.73;;;4.10;;
11616;SDS011;5864;52.998;9.068;2022-09-14T07:35:51;6.10;;;4.27;;
11616;SDS011;5864;52.998;9.068;2022-09-14T07:38:19;6.83;;;4.37;;
11616;SDS011;5864;52.998;9.068;2022-09-14T07:40:46;11.17;;;4.10;;
11616;SDS011;5864;52.998;9.068;2022-09-14T07:43:14;6.47;;;3.20;;
11616;SDS011;5864;52.998;9.068;2022-09-14T07:45:41;6.13;;;3.70;;
11616;SDS011;5864;52.998;9.068;2022-09-14T07:48:09;9.63;;;4.30;;
11616;SDS011;5864;52.998;9.068;2022-09-14T07:50:38;6.27;;;3.67;;
11616;SDS011;5864;52.998;9.068;2022-09-14T07:53:05;6.93;;;3.27;;
11616;SDS011;5864;52.998;9.068;2022-09-14T07:55:32;7.47;;;3.43;;
11616;SDS011;5864;52.998;9.068;2022-09-14T07:58:00;5.73;;;3.10;;
11616;SDS011;5864;52.998;9.068;2022-09-14T08:00:27;5.17;;;3.30;;
11616;SDS011;5864;52.998;9.068;2022-09-14T08:02:55;7.30;;;3.57;;
11616;SDS011;5864;52.998;9.068;2022-09-14T08:05:23;6.07;;;3.23;;
11616;SDS011;5864;52.998;9.068;2022-09-14T08:07:55;5.40;;;3.37;;
11616;SDS011;5864;52.998;9.068;2022-09-14T08:10:22;7.97;;;3.20;;
11616;SDS011;5864;52.998;9.068;2022-09-14T08:12:50;4.23;;;2.50;;
11616;SDS011;5864;52.998;9.068;2022-09-14T08:15:19;6.43;;;2.67;;
11616;SDS011;5864;52.998;9.068;2022-09-14T08:17:47;4.63;;;2.27;;
11616;SDS011;5864;52.998;9.068;2022-09-14T08:20:15;5.00;;;2.67;;
11616;SDS011;5864;52.998;9.068;2022-09-14T08:22:43;5.27;;;2.57;;
11616;SDS011;5864;52.998;9.068;2022-09-14T08:25:11;5.37;;;2.93;;
11616;SDS011;5864;52.998;9.068;2022-09-14T08:27:39;8.37;;;3.03;;
11616;SDS011;5864;52.998;9.068;2022-09-14T08:30:07;6.63;;;2.87;;
11616;SDS011;5864;52.998;9.068;2022-09-14T08:32:38;3.67;;;2.70;;
11616;SDS011;5864;52.998;9.068;2022-09-14T08:35:05;6.90;;;3.10;;
11616;SDS011;5864;52.998;9.068;2022-09-14T08:37:33;4.77;;;2.73;;
11616;SDS011;5864;52.998;9.068;2022-09-14T08:40:01;4.40;;;2.80;;
11616;SDS011;5864;52.998;9.068;2022-09-14T08:42:31;3.10;;;2.60;;
11616;SDS011;5864;52.998;9.068;2022-09-14T08:44:59;6.93;;;3.20;;
11616;SDS011;5864;52.998;9.068;2022-09-14T08:47:31;5.57;;;2.70;;
11616;SDS011;5864;52.998;9.068;2022-09-14T08:50:02;6.33;;;2.90;;
11616;SDS011;5864;52.998;9.068;2022-09-14T08:52:38;7.77;;;3.27;;
11616;SDS011;5864;52.998;9.068;2022-09-14T08:55:16;5.67;;;2.70;;
11616;SDS011;5864;52.998;9.068;2022-09-14T08:57:54;5.90;;;2.77;;
11616;SDS011;5864;52.998;9.068;2022-09-14T09:00:30;4.07;;;2.63;;
11616;SDS011;5864;52.998;9.068;2022-09-14T09:03:13;4.60;;;2.50;;
11616;SDS011;5864;52.998;9.068;2022-09-14T09:06:02;6.50;;;3.07;;
11616;SDS011;5864;52.998;9.068;2022-09-14T09:08:37;7.97;;;2.60;;
11616;SDS011;5864;52.998;9.068;2022-09-14T09:11:12;7.33;;;2.67;;
11616;SDS011;5864;52.998;9.068;2022-09-14T09:13:44;7.00;;;2.90;;
11616;SDS011;5864;52.998;9.068;2022-09-14T09:16:15;5.57;;;2.27;;
11616;SDS011;5864;52.998;9.068;2022-09-14T09:18:48;6.43;;;2.20;;
11616;SDS011;5864;52.998;9.068;2022-09-14T09:21:19;5.73;;;2.43;;
11616;SDS011;5864;52.998;9.068;2022-09-14T09:23:49;6.47;;;2.30;;
11616;SDS011;5864;52.998;9.068;2022-09-14T09:26:20;4.33;;;2.10;;
11616;SDS011;5864;52.998;9.068;2022-09-14T09:28:54;7.83;;;2.60;;
11616;SDS011;5864;52.998;9.068;2022-09-14T09:31:26;4.73;;;2.07;;
11616;SDS011;5864;52.998;9.068;2022-09-14T09:33:58;5.07;;;2.10;;
11616;SDS011;5864;52.998;9.068;2022-09-14T09:36:27;7.20;;;2.40;;
11616;SDS011;5864;52.998;9.068;2022-09-14T09:39:00;5.63;;;2.07;;
11616;SDS011;5864;52.998;9.068;2022-09-14T09:41:28;7.70;;;2.10;;
11616;SDS011;5864;52.998;9.068;2022-09-14T09:44:02;5.47;;;2.13;;
11616;SDS011;5864;52.998;9.068;2022-09-14T09:46:32;3.87;;;1.80;;
11616;SDS011;5864;52.998;9.068;2022-09-14T09:49:02;3.60;;;1.80;;
11616;SDS011;5864;52.998;9.068;2022-09-14T09:51:40;8.50;;;2.53;;
11616;SDS011;5864;52.998;9.068;2022-09-14T09:54:15;5.40;;;1.83;;
11616;SDS011;5864;52.998;9.068;2022-09-14T09:56:54;4.43;;;1.50;;
11616;SDS011;5864;52.998;9.068;2022-09-14T09:59:34;2.67;;;1.43;;
11616;SDS011;5864;52.998;9.068;2022-09-14T10:02:22;4.83;;;2.13;;
11616;SDS011;5864;52.998;9.068;2022-09-14T10:05:00;4.03;;;1.63;;
11616;SDS011;5864;52.998;9.068;2022-09-14T10:07:31;4.00;;;1.60;;
11616;SDS011;5864;52.998;9.068;2022-09-14T10:10:03;4.27;;;1.73;;
11616;SDS011;5864;52.998;9.068;2022-09-14T10:12:33;4.20;;;1.33;;
11616;SDS011;5864;52.998;9.068;2022-09-14T10:15:05;4.20;;;1.50;;
11616;SDS011;5864;52.998;9.068;2022-09-14T10:17:52;4.30;;;1.60;;
11616;SDS011;5864;52.998;9.068;2022-09-14T10:20:21;5.00;;;1.60;;
11616;SDS011;5864;52.998;9.068;2022-09-14T10:22:50;3.57;;;1.70;;
11616;SDS011;5864;52.998;9.068;2022-09-14T10:25:21;6.30;;;1.60;;
11616;SDS011;5864;52.998;9.068;2022-09-14T10:27:56;5.87;;;1.50;;
11616;SDS011;5864;52.998;9.068;2022-09-14T10:30:26;3.40;;;1.47;;
11616;SDS011;5864;52.998;9.068;2022-09-14T10:32:58;3.97;;;1.60;;
11616;SDS011;5864;52.998;9.068;2022-09-14T10:35:28;4.93;;;1.67;;
11616;SDS011;5864;52.998;9.068;2022-09-14T10:40:57;3.80;;;1.30;;
11616;SDS011;5864;52.998;9.068;2022-09-14T10:43:36;2.40;;;1.40;;
11616;SDS011;5864;52.998;9.068;2022-09-14T10:46:25;3.00;;;1.57;;
11616;SDS011;5864;52.998;9.068;2022-09-14T10:49:03;3.77;;;1.50;;
11616;SDS011;5864;52.998;9.068;2022-09-14T10:51:44;2.70;;;1.33;;
11616;SDS011;5864;52.998;9.068;2022-09-14T10:54:28;3.63;;;1.43;;
11616;SDS011;5864;52.998;9.068;2022-09-14T10:57:19;2.27;;;1.40;;
11616;SDS011;5864;52.998;9.068;2022-09-14T10:59:54;3.73;;;1.83;;
11616;SDS011;5864;52.998;9.068;2022-09-14T11:02:37;3.37;;;1.57;;
11616;SDS011;5864;52.998;9.068;2022-09-14T11:05:33;4.10;;;1.53;;
11616;SDS011;5864;52.998;9.068;2022-09-14T11:08:07;3.23;;;1.50;;
11616;SDS011;5864;52.998;9.068;2022-09-14T11:10:41;3.57;;;1.50;;
11616;SDS011;5864;52.998;9.068;2022-09-14T11:13:20;4.13;;;1.70;;
11616;SDS011;5864;52.998;9.068;2022-09-14T11:16:01;3.03;;;1.60;;
11616;SDS011;5864;52.998;9.068;2022-09-14T11:18:38;3.07;;;1.30;;
11616;SDS011;5864;52.998;9.068;2022-09-14T11:21:15;3.53;;;1.60;;
11616;SDS011;5864;52.998;9.068;2022-09-14T11:23:50;2.77;;;1.30;;
11616;SDS011;5864;52.998;9.068;2022-09-14T11:26:21;3.37;;;1.50;;
11616;SDS011;5864;52.998;9.068;2022-09-14T11:28:57;3.23;;;1.10;;
11616;SDS011;5864;52.998;9.068;2022-09-14T11:31:33;2.97;;;1.57;;
11616;SDS011;5864;52.998;9.068;2022-09-14T11:34:12;2.73;;;1.30;;
11616;SDS011;5864;52.998;9.068;2022-09-14T11:36:46;2.37;;;1.40;;
11616;SDS011;5864;52.998;9.068;2022-09-14T11:39:17;3.83;;;1.40;;
11616;SDS011;5864;52.998;9.068;2022-09-14T11:41:47;2.93;;;1.20;;
11616;SDS011;5864;52.998;9.068;2022-09-14T11:44:18;4.13;;;1.40;;
11616;SDS011;5864;52.998;9.068;2022-09-14T11:46:49;2.93;;;1.30;;
11616;SDS011;5864;52.998;9.068;2022-09-14T11:49:24;2.70;;;1.50;;
11616;SDS011;5864;52.998;9.068;2022-09-14T11:51:57;2.80;;;1.30;;
11616;SDS011;5864;52.998;9.068;2022-09-14T11:54:30;3.83;;;1.77;;
11616;SDS011;5864;52.998;9.068;2022-09-14T11:56:58;2.37;;;1.20;;
11616;SDS011;5864;52.998;9.068;2022-09-14T11:59:35;2.73;;;1.40;;
11616;SDS011;5864;52.998;9.068;2022-09-14T12:05:25;3.13;;;1.43;;
11616;SDS011;5864;52.998;9.068;2022-09-14T12:07:58;4.43;;;1.50;;
11616;SDS011;5864;52.998;9.068;2022-09-14T12:10:27;4.33;;;1.40;;
11616;SDS011;5864;52.998;9.068;2022-09-14T12:12:56;2.87;;;1.73;;
11616;SDS011;5864;52.998;9.068;2022-09-14T12:15:43;3.37;;;1.40;;
11616;SDS011;5864;52.998;9.068;2022-09-14T12:18:21;2.77;;;1.30;;
11616;SDS011;5864;52.998;9.068;2022-09-14T12:20:59;4.07;;;1.60;;
11616;SDS011;5864;52.998;9.068;2022-09-14T12:23:30;3.23;;;1.30;;
11616;SDS011;5864;52.998;9.068;2022-09-14T12:29:18;3.17;;;1.67;;
11616;SDS011;5864;52.998;9.068;2022-09-14T12:32:03;3.30;;;1.43;;
11616;SDS011;5864;52.998;9.068;2022-09-14T12:37:51;2.43;;;1.30;;
11616;SDS011;5864;52.998;9.068;2022-09-14T12:46:30;2.00;;;1.33;;
11616;SDS011;5864;52.998;9.068;2022-09-14T12:48:59;2.87;;;1.20;;
11616;SDS011;5864;52.998;9.068;2022-09-14T12:51:31;4.33;;;1.40;;
11616;SDS011;5864;52.998;9.068;2022-09-14T12:54:14;4.13;;;1.50;;
11616;SDS011;5864;52.998;9.068;2022-09-14T12:56:49;2.60;;;1.20;;
11616;SDS011;5864;52.998;9.068;2022-09-14T12:59:26;5.37;;;1.40;;
11616;SDS011;5864;52.998;9.068;2022-09-14T13:02:03;1.77;;;1.20;;
11616;SDS011;5864;52.998;9.068;2022-09-14T13:05:02;3.53;;;1.47;;
11616;SDS011;5864;52.998;9.068;2022-09-14T13:07:33;2.30;;;1.30;;
11616;SDS011;5864;52.998;9.068;2022-09-14T13:10:07;3.17;;;1.30;;
11616;SDS011;5864;52.998;9.068;2022-09-14T13:12:45;2.70;;;1.30;;
11616;SDS011;5864;52.998;9.068;2022-09-14T13:15:15;4.07;;;1.53;;
11616;SDS011;5864;52.998;9.068;2022-09-14T13:17:56;3.90;;;1.50;;
11616;SDS011;5864;52.998;9.068;2022-09-14T13:20:25;4.70;;;1.40;;
11616;SDS011;5864;52.998;9.068;2022-09-14T13:22:53;5.07;;;1.63;;
11616;SDS011;5864;52.998;9.068;2022-09-14T13:25:27;5.43;;;1.50;;
11616;SDS011;5864;52.998;9.068;2022-09-14T13:27:59;2.20;;;1.20;;
11616;SDS011;5864;52.998;9.068;2022-09-14T13:30:29;2.97;;;1.30;;
11616;SDS011;5864;52.998;9.068;2022-09-14T13:32:58;3.17;;;1.30;;
11616;SDS011;5864;52.998;9.068;2022-09-14T13:35:28;4.67;;;1.30;;
11616;SDS011;5864;52.998;9.068;2022-09-14T13:37:58;3.40;;;1.30;;
11616;SDS011;5864;52.998;9.068;2022-09-14T13:40:32;4.00;;;1.40;;
11616;SDS011;5864;52.998;9.068;2022-09-14T13:42:59;4.80;;;1.80;;
11616;SDS011;5864;52.998;9.068;2022-09-14T13:45:27;3.37;;;1.43;;
11616;SDS011;5864;52.998;9.068;2022-09-14T13:47:56;2.90;;;1.50;;
11616;SDS011;5864;52.998;9.068;2022-09-14T13:50:24;2.73;;;1.40;;
11616;SDS011;5864;52.998;9.068;2022-09-14T13:52:53;2.70;;;1.43;;
11616;SDS011;5864;52.998;9.068;2022-09-14T13:55:22;3.30;;;1.40;;
11616;SDS011;5864;52.998;9.068;2022-09-14T14:00:51;4.40;;;1.50;;
11616;SDS011;5864;52.998;9.068;2022-09-14T14:03:25;4.60;;;1.67;;
11616;SDS011;5864;52.998;9.068;2022-09-14T14:05:55;3.03;;;1.40;;
11616;SDS011;5864;52.998;9.068;2022-09-14T14:08:25;2.63;;;1.43;;
11616;SDS011;5864;52.998;9.068;2022-09-14T14:10:57;3.80;;;1.30;;
11616;SDS011;5864;52.998;9.068;2022-09-14T14:13:27;4.33;;;1.40;;
11616;SDS011;5864;52.998;9.068;2022-09-14T14:16:12;3.60;;;1.50;;
11616;SDS011;5864;52.998;9.068;2022-09-14T14:18:42;4.33;;;1.60;;
11616;SDS011;5864;52.998;9.068;2022-09-14T14:21:23;2.17;;;1.40;;
11616;SDS011;5864;52.998;9.068;2022-09-14T14:24:01;5.07;;;1.50;;
11616;SDS011;5864;52.998;9.068;2022-09-14T14:26:51;5.43;;;2.27;;
11616;SDS011;5864;52.998;9.068;2022-09-14T14:29:21;3.70;;;1.80;;
11616;SDS011;5864;52.998;9.068;2022-09-14T14:31:49;7.87;;;1.67;;
11616;SDS011;5864;52.998;9.068;2022-09-14T14:34:18;6.17;;;2.07;;
11616;SDS011;5864;52.998;9.068;2022-09-14T14:36:47;4.67;;;1.63;;
11616;SDS011;5864;52.998;9.068;2022-09-14T14:39:16;8.70;;;2.23;;
11616;SDS011;5864;52.998;9.068;2022-09-14T14:41:44;6.47;;;2.03;;
11616;SDS011;5864;52.998;9.068;2022-09-14T14:44:15;5.30;;;2.30;;
11616;SDS011;5864;52.998;9.068;2022-09-14T14:46:46;5.07;;;2.00;;
11616;SDS011;5864;52.998;9.068;2022-09-14T14:49:14;8.03;;;2.50;;
11616;SDS011;5864;52.998;9.068;2022-09-14T14:51:45;4.20;;;1.57;;
11616;SDS011;5864;52.998;9.068;2022-09-14T14:54:14;5.87;;;2.07;;
11616;SDS011;5864;52.998;9.068;2022-09-14T14:56:43;8.63;;;2.00;;
11616;SDS011;5864;52.998;9.068;2022-09-14T14:59:15;5.73;;;1.87;;
11616;SDS011;5864;52.998;9.068;2022-09-14T15:01:55;5.87;;;1.90;;
11616;SDS011;5864;52.998;9.068;2022-09-14T15:04:23;3.33;;;1.67;;
11616;SDS011;5864;52.998;9.068;2022-09-14T15:06:51;6.67;;;1.90;;
11616;SDS011;5864;52.998;9.068;2022-09-14T15:09:20;4.77;;;1.80;;
11616;SDS011;5864;52.998;9.068;2022-09-14T15:11:49;4.47;;;1.97;;
11616;SDS011;5864;52.998;9.068;2022-09-14T15:14:18;6.63;;;2.13;;
11616;SDS011;5864;52.998;9.068;2022-09-14T15:16:47;7.63;;;2.13;;
11616;SDS011;5864;52.998;9.068;2022-09-14T15:19:16;4.43;;;1.60;;
11616;SDS011;5864;52.998;9.068;2022-09-14T15:21:44;8.07;;;1.97;;
11616;SDS011;5864;52.998;9.068;2022-09-14T15:24:12;6.93;;;1.97;;
11616;SDS011;5864;52.998;9.068;2022-09-14T15:26:39;9.93;;;2.43;;
11616;SDS011;5864;52.998;9.068;2022-09-14T15:29:08;5.40;;;1.80;;
11616;SDS011;5864;52.998;9.068;2022-09-14T15:31:37;5.23;;;2.17;;
11616;SDS011;5864;52.998;9.068;2022-09-14T15:34:05;4.50;;;1.57;;
11616;SDS011;5864;52.998;9.068;2022-09-14T15:36:35;4.93;;;1.87;;
11616;SDS011;5864;52.998;9.068;2022-09-14T15:39:04;5.67;;;1.80;;
11616;SDS011;5864;52.998;9.068;2022-09-14T15:41:32;3.83;;;1.70;;
11616;SDS011;5864;52.998;9.068;2022-09-14T15:44:00;4.70;;;1.60;;
11616;SDS011;5864;52.998;9.068;2022-09-14T15:46:28;5.93;;;2.00;;
11616;SDS011;5864;52.998;9.068;2022-09-14T15:48:56;5.03;;;2.10;;
11616;SDS011;5864;52.998;9.068;2022-09-14T15:51:24;4.03;;;1.90;;